Terminal Aerodrome Forecast
Issued by NWS

Home | Current Version | Previous Version | Text Only | Print | Product List | Glossary On
Versions: 1 2 3 4 5 6 7 8 9 10 11 12 13 14 15 16 17
000
FTUS46 KPDT 301737
TAFYKM
TAF
KYKM 301737Z 3018/0118 VRB06KT P6SM SKC
     FM302200 32008KT P6SM SKC
     FM010300 32013KT P6SM SKC
     FM010900 30007KT P6SM SKC=

USA.gov is the U.S. government's official web portal to all federal, state and local government web resources and services.